createdAt,value
2023-02-06T00:01:51.312Z,5.00
2023-02-06T00:04:24.326Z,4.35
2023-02-06T00:06:51.002Z,4.40
2023-02-06T00:09:17.666Z,4.18
2023-02-06T00:11:48.160Z,3.22
2023-02-06T00:14:15.181Z,7.53
2023-02-06T00:16:42.160Z,4.90
2023-02-06T00:19:08.879Z,4.57
2023-02-06T00:21:35.690Z,7.70
2023-02-06T00:24:03.429Z,4.60
2023-02-06T00:26:34.867Z,3.88
2023-02-06T00:29:01.601Z,3.90
2023-02-06T00:31:28.684Z,3.57
2023-02-06T00:33:55.600Z,3.90
2023-02-06T00:36:26.906Z,3.80
2023-02-06T00:38:57.298Z,5.53
2023-02-06T00:41:23.978Z,4.95
2023-02-06T00:43:50.572Z,3.90
2023-02-06T00:46:17.638Z,5.28
2023-02-06T00:48:49.901Z,4.72
2023-02-06T00:51:19.737Z,3.88
2023-02-06T00:53:51.192Z,4.65
2023-02-06T00:56:18.336Z,4.80
2023-02-06T00:58:48.771Z,4.43
2023-02-06T01:01:17.000Z,4.00
2023-02-06T01:03:46.853Z,4.32
2023-02-06T01:06:14.425Z,3.92
2023-02-06T01:08:41.406Z,3.93
2023-02-06T01:11:23.825Z,3.90
2023-02-06T01:13:50.746Z,3.75
2023-02-06T01:16:22.765Z,3.78
2023-02-06T01:18:50.263Z,4.00
2023-02-06T01:21:20.595Z,3.33
2023-02-06T01:23:56.140Z,4.38
2023-02-06T01:26:26.931Z,4.22
2023-02-06T01:28:55.476Z,4.00
2023-02-06T01:31:26.228Z,4.45
2023-02-06T01:33:54.591Z,3.33
2023-02-06T01:36:25.138Z,3.28
2023-02-06T01:38:52.777Z,2.97
2023-02-06T01:41:22.718Z,3.40
2023-02-06T01:44:15.682Z,4.10
2023-02-06T01:46:54.780Z,4.23
2023-02-06T01:49:28.582Z,3.72
2023-02-06T01:52:01.806Z,3.03
2023-02-06T01:54:28.821Z,2.78
2023-02-06T01:57:01.352Z,2.92
2023-02-06T01:59:28.464Z,2.87
2023-02-06T02:01:55.537Z,3.38
2023-02-06T02:04:27.130Z,3.55
2023-02-06T02:07:23.112Z,3.47
2023-02-06T02:09:49.981Z,3.45
2023-02-06T02:12:17.007Z,3.90
2023-02-06T02:14:45.782Z,3.33
2023-02-06T02:17:30.989Z,4.13
2023-02-06T02:20:35.044Z,4.70
2023-02-06T02:23:29.256Z,4.38
2023-02-06T02:26:32.466Z,3.30
2023-02-06T02:29:23.948Z,3.97
2023-02-06T02:32:31.832Z,3.88
2023-02-06T02:35:20.770Z,4.53
2023-02-06T02:37:53.000Z,3.72
2023-02-06T02:40:43.960Z,3.50
2023-02-06T02:43:34.982Z,3.88
2023-02-06T02:46:24.316Z,4.05
2023-02-06T02:48:54.810Z,3.42
2023-02-06T02:51:22.312Z,3.25
2023-02-06T02:53:48.906Z,4.00
2023-02-06T02:56:21.620Z,4.13
2023-02-06T02:58:56.999Z,4.05
2023-02-06T03:01:32.110Z,3.10
2023-02-06T03:04:04.491Z,3.50
2023-02-06T03:06:52.937Z,3.63
2023-02-06T03:09:28.481Z,4.47
2023-02-06T03:12:12.240Z,3.03
2023-02-06T03:14:49.276Z,3.33
2023-02-06T03:17:24.975Z,3.47
2023-02-06T03:19:58.492Z,3.87
2023-02-06T03:22:28.198Z,3.45
2023-02-06T03:24:57.099Z,3.08
2023-02-06T03:27:27.320Z,3.30
2023-02-06T03:29:55.269Z,2.35
2023-02-06T03:32:32.498Z,2.97
2023-02-06T03:35:21.938Z,2.60
2023-02-06T03:37:50.234Z,2.67
2023-02-06T03:40:18.243Z,3.10
2023-02-06T03:42:51.225Z,3.85
2023-02-06T03:45:26.416Z,3.23
2023-02-06T03:47:56.595Z,3.20
2023-02-06T03:50:26.301Z,3.15
2023-02-06T03:52:55.662Z,5.15
2023-02-06T03:55:24.101Z,3.80
2023-02-06T03:57:59.194Z,4.43
2023-02-06T04:00:26.730Z,3.67
2023-02-06T04:02:55.420Z,2.80
2023-02-06T04:05:22.114Z,3.45
2023-02-06T04:07:49.049Z,3.60
2023-02-06T04:10:15.716Z,4.20
2023-02-06T04:12:42.248Z,3.42
2023-02-06T04:15:09.372Z,3.40
2023-02-06T04:17:53.550Z,2.90
2023-02-06T04:20:23.021Z,2.70
2023-02-06T04:22:50.386Z,3.93
2023-02-06T04:25:17.038Z,3.45
2023-02-06T04:27:43.630Z,4.15
2023-02-06T04:30:10.814Z,3.47
2023-02-06T04:32:37.403Z,3.95
2023-02-06T04:35:04.299Z,4.17
2023-02-06T04:37:30.971Z,2.78
2023-02-06T04:39:57.545Z,3.30
2023-02-06T04:42:24.099Z,3.13
2023-02-06T04:44:50.991Z,3.65
2023-02-06T04:47:17.745Z,3.53
2023-02-06T04:49:44.390Z,3.72
2023-02-06T04:52:10.999Z,4.43
2023-02-06T04:54:37.601Z,3.80
2023-02-06T04:57:04.193Z,3.50
2023-02-06T04:59:30.857Z,3.43
2023-02-06T05:01:57.521Z,3.97
2023-02-06T05:04:24.239Z,3.58
2023-02-06T05:06:50.882Z,3.58
2023-02-06T05:09:17.473Z,4.38
2023-02-06T05:11:44.152Z,3.70
2023-02-06T05:14:10.799Z,2.70
2023-02-06T05:16:37.469Z,3.55
2023-02-06T05:19:04.020Z,3.13
2023-02-06T05:21:30.826Z,4.60
2023-02-06T05:23:57.479Z,3.10
2023-02-06T05:26:24.105Z,3.47
2023-02-06T05:28:50.881Z,3.05
2023-02-06T05:31:20.533Z,3.42
2023-02-06T05:33:52.577Z,3.55
2023-02-06T05:36:20.275Z,3.30
2023-02-06T05:38:48.023Z,3.00
2023-02-06T05:41:15.542Z,2.85
2023-02-06T05:43:42.250Z,3.90
2023-02-06T05:46:09.609Z,3.40
2023-02-06T05:48:36.365Z,4.00
2023-02-06T05:51:03.052Z,5.20
2023-02-06T05:53:29.797Z,4.88
2023-02-06T05:55:57.256Z,5.82
2023-02-06T05:58:24.108Z,4.45
2023-02-06T06:00:50.657Z,3.90
2023-02-06T06:03:17.306Z,4.75
2023-02-06T06:05:43.927Z,4.18
2023-02-06T06:08:10.563Z,7.20
2023-02-06T06:10:37.260Z,4.35
2023-02-06T06:13:04.124Z,5.53
2023-02-06T06:15:30.907Z,4.68
2023-02-06T06:17:57.498Z,7.35
2023-02-06T06:20:24.121Z,5.57
2023-02-06T06:22:50.770Z,9.63
2023-02-06T06:25:17.416Z,5.97
2023-02-06T06:27:43.999Z,5.00
2023-02-06T06:30:11.289Z,5.35
2023-02-06T06:32:38.182Z,4.65
2023-02-06T06:35:05.224Z,4.32
2023-02-06T06:37:31.923Z,6.47
2023-02-06T06:39:58.520Z,4.93
2023-02-06T06:42:25.114Z,4.43
2023-02-06T06:44:51.839Z,5.05
2023-02-06T06:47:18.494Z,5.18
2023-02-06T06:49:45.035Z,5.70
2023-02-06T06:52:23.949Z,6.20
2023-02-06T06:54:52.433Z,9.23
2023-02-06T06:57:19.587Z,6.85
2023-02-06T06:59:46.217Z,5.45
2023-02-06T07:02:12.901Z,6.83
2023-02-06T07:04:39.872Z,6.65
2023-02-06T07:07:07.095Z,7.75
2023-02-06T07:09:34.175Z,5.68
2023-02-06T07:12:00.832Z,5.47
2023-02-06T07:14:27.460Z,6.27
2023-02-06T07:16:54.046Z,7.53
2023-02-06T07:19:21.458Z,7.68
2023-02-06T07:21:48.100Z,5.43
2023-02-06T07:24:14.924Z,8.80
2023-02-06T07:26:41.637Z,7.17
2023-02-06T07:29:08.362Z,8.27
2023-02-06T07:31:35.140Z,6.70
2023-02-06T07:34:02.345Z,6.13
2023-02-06T07:36:29.116Z,9.05
2023-02-06T07:38:56.040Z,7.90
2023-02-06T07:41:22.861Z,12.57
2023-02-06T07:43:49.462Z,9.93
2023-02-06T07:46:16.120Z,9.20
2023-02-06T07:48:42.784Z,7.10
2023-02-06T07:51:10.270Z,7.03
2023-02-06T07:53:37.992Z,7.35
2023-02-06T07:56:13.654Z,6.80
2023-02-06T07:58:41.133Z,9.95
2023-02-06T08:01:08.427Z,9.98
2023-02-06T08:03:35.332Z,5.73
2023-02-06T08:06:08.240Z,5.38
2023-02-06T08:08:34.980Z,5.50
2023-02-06T08:11:05.561Z,6.93
2023-02-06T08:13:32.321Z,5.72
2023-02-06T08:15:58.998Z,12.27
2023-02-06T08:18:26.388Z,6.57
2023-02-06T08:20:52.993Z,5.90
2023-02-06T08:23:20.913Z,5.25
2023-02-06T08:25:47.755Z,5.70
2023-02-06T08:28:15.117Z,5.60
2023-02-06T08:30:41.896Z,5.28
2023-02-06T08:33:08.493Z,6.90
2023-02-06T08:35:35.439Z,5.70
2023-02-06T08:38:02.166Z,8.73
2023-02-06T08:40:28.761Z,6.23
2023-02-06T08:42:55.391Z,5.35
2023-02-06T08:45:22.021Z,6.78
2023-02-06T08:47:48.755Z,6.43
2023-02-06T08:50:15.718Z,5.70
2023-02-06T08:52:42.375Z,6.47
2023-02-06T08:55:09.009Z,6.10
2023-02-06T08:57:35.625Z,6.20
2023-02-06T09:00:02.490Z,7.13
2023-02-06T09:02:29.100Z,6.90
2023-02-06T09:04:55.860Z,6.90
2023-02-06T09:07:22.523Z,7.55
2023-02-06T09:09:49.156Z,6.47
2023-02-06T09:12:15.882Z,6.53
2023-02-06T09:14:42.542Z,7.15
2023-02-06T09:17:09.175Z,6.93
2023-02-06T09:19:35.852Z,6.63
2023-02-06T09:22:02.759Z,6.70
2023-02-06T09:24:30.258Z,8.23
2023-02-06T09:27:00.138Z,6.13
2023-02-06T09:29:32.070Z,7.20
2023-02-06T09:31:59.406Z,5.85
2023-02-06T09:34:28.058Z,6.93
2023-02-06T09:36:56.734Z,6.53
2023-02-06T09:39:23.747Z,7.30
2023-02-06T09:41:56.731Z,7.80
2023-02-06T09:44:44.466Z,9.48
2023-02-06T09:47:19.954Z,7.00
2023-02-06T09:49:57.698Z,7.60
2023-02-06T09:52:27.010Z,6.50
2023-02-06T09:55:03.351Z,7.50
2023-02-06T09:57:41.685Z,7.68
2023-02-06T10:00:35.601Z,7.35
2023-02-06T10:03:27.126Z,6.22
2023-02-06T10:05:59.538Z,6.05
2023-02-06T10:08:34.234Z,6.50
2023-02-06T10:11:09.558Z,7.18
2023-02-06T10:13:49.756Z,6.88
2023-02-06T10:16:26.144Z,6.63
2023-02-06T10:18:57.860Z,6.18
2023-02-06T10:21:42.782Z,8.07
2023-02-06T10:24:23.803Z,7.80
2023-02-06T10:26:53.486Z,7.57
2023-02-06T10:29:28.342Z,7.05
2023-02-06T10:32:02.108Z,5.70
2023-02-06T10:34:37.618Z,4.93
2023-02-06T10:37:20.080Z,5.63
2023-02-06T10:40:01.515Z,7.10
2023-02-06T10:42:43.951Z,7.07
2023-02-06T10:45:20.162Z,5.72
2023-02-06T10:47:56.285Z,4.87
2023-02-06T10:50:30.885Z,7.35
2023-02-06T10:53:03.895Z,5.75
2023-02-06T10:55:49.242Z,5.82
2023-02-06T10:58:42.823Z,7.22
2023-02-06T11:01:25.048Z,9.30
2023-02-06T11:04:12.544Z,5.15
2023-02-06T11:06:41.544Z,6.20
2023-02-06T11:09:10.371Z,5.53
2023-02-06T11:11:40.958Z,6.60
2023-02-06T11:14:25.312Z,5.67
2023-02-06T11:16:53.386Z,5.47
2023-02-06T11:19:36.195Z,4.50
2023-02-06T11:22:07.262Z,5.63
2023-02-06T11:24:38.515Z,4.53
2023-02-06T11:27:22.815Z,5.03
2023-02-06T11:29:52.171Z,4.18
2023-02-06T11:32:27.756Z,4.53
2023-02-06T11:34:59.216Z,3.33
2023-02-06T11:37:36.748Z,3.53
2023-02-06T11:40:18.718Z,5.70
2023-02-06T11:42:47.112Z,5.38
2023-02-06T11:45:23.016Z,4.13
2023-02-06T11:47:49.829Z,6.22
2023-02-06T11:50:36.465Z,5.70
2023-02-06T11:53:11.831Z,4.20
2023-02-06T11:55:39.789Z,3.60
2023-02-06T11:58:12.540Z,4.30
2023-02-06T12:00:52.340Z,3.00
2023-02-06T12:03:25.239Z,4.40
2023-02-06T12:05:52.384Z,5.07
2023-02-06T12:08:21.921Z,3.20
2023-02-06T12:10:59.771Z,3.60
2023-02-06T12:13:37.519Z,2.88
2023-02-06T12:16:07.749Z,3.00
2023-02-06T12:18:38.677Z,3.07
2023-02-06T12:21:07.681Z,5.13
2023-02-06T12:23:34.269Z,4.03
2023-02-06T12:26:05.053Z,7.30
2023-02-06T12:28:42.861Z,3.63
2023-02-06T12:31:42.978Z,3.13
2023-02-06T12:34:18.507Z,3.67
2023-02-06T12:37:10.599Z,3.53
2023-02-06T12:39:37.430Z,3.40
2023-02-06T12:42:32.070Z,3.78
2023-02-06T12:45:15.758Z,2.83
2023-02-06T12:47:52.048Z,5.10
2023-02-06T12:50:27.225Z,5.00
2023-02-06T12:53:04.626Z,6.20
2023-02-06T12:55:40.157Z,8.10
2023-02-06T12:58:30.294Z,3.63
2023-02-06T13:01:02.297Z,5.85
2023-02-06T13:03:34.809Z,2.78
2023-02-06T13:06:12.392Z,3.00
2023-02-06T13:08:50.337Z,4.05
2023-02-06T13:11:31.941Z,3.73
2023-02-06T13:14:23.138Z,3.13
2023-02-06T13:16:53.379Z,3.60
2023-02-06T13:19:42.078Z,4.50
2023-02-06T13:22:08.746Z,3.88
2023-02-06T13:24:36.929Z,3.90
2023-02-06T13:27:09.736Z,3.15
2023-02-06T13:29:46.996Z,3.75
2023-02-06T13:32:18.636Z,4.20
2023-02-06T13:34:53.797Z,3.03
2023-02-06T13:37:39.947Z,2.97
2023-02-06T13:40:25.599Z,3.00
2023-02-06T13:42:55.973Z,4.45
2023-02-06T13:45:27.780Z,3.45
2023-02-06T13:48:06.325Z,4.97
2023-02-06T13:50:46.904Z,3.30
2023-02-06T13:53:53.512Z,4.88
2023-02-06T13:56:44.720Z,3.80
2023-02-06T13:59:33.104Z,2.38
2023-02-06T14:02:19.981Z,5.45
2023-02-06T14:04:47.007Z,3.40
2023-02-06T14:07:22.837Z,3.95
2023-02-06T14:10:14.112Z,2.80
2023-02-06T14:12:49.802Z,3.70
2023-02-06T14:15:39.674Z,6.13
2023-02-06T14:18:25.028Z,2.83
2023-02-06T14:21:09.932Z,3.60
2023-02-06T14:24:19.771Z,2.70
2023-02-06T14:26:58.393Z,3.08
2023-02-06T14:29:37.922Z,4.90
2023-02-06T14:32:16.597Z,3.83
2023-02-06T14:35:14.319Z,2.95
2023-02-06T14:37:57.829Z,3.67
2023-02-06T14:40:27.135Z,3.38
2023-02-06T14:42:58.212Z,2.03
2023-02-06T14:45:40.812Z,3.20
2023-02-06T14:48:30.336Z,3.25
2023-02-06T14:50:58.423Z,3.28
2023-02-06T14:53:39.470Z,3.00
2023-02-06T14:56:07.691Z,3.13
2023-02-06T14:58:34.689Z,3.40
2023-02-06T15:01:21.178Z,2.67
2023-02-06T15:03:50.070Z,4.07
2023-02-06T15:06:31.041Z,3.13
2023-02-06T15:08:57.787Z,3.45
2023-02-06T15:11:32.394Z,16.93
2023-02-06T15:14:03.504Z,3.90
2023-02-06T15:16:31.082Z,3.30
2023-02-06T15:19:12.646Z,4.25
2023-02-06T15:21:43.172Z,3.70
2023-02-06T15:24:17.700Z,3.37
2023-02-06T15:27:26.588Z,8.23
2023-02-06T15:29:53.412Z,5.78
2023-02-06T15:32:33.239Z,2.90
2023-02-06T15:35:01.628Z,4.10
2023-02-06T15:37:32.435Z,4.00
2023-02-06T15:40:13.117Z,4.63
2023-02-06T15:42:40.484Z,4.65
2023-02-06T15:45:15.322Z,3.67
2023-02-06T15:47:44.634Z,4.93
2023-02-06T15:50:16.152Z,3.40
2023-02-06T15:52:47.102Z,3.65
2023-02-06T15:55:28.198Z,4.32
2023-02-06T15:57:56.968Z,3.67
2023-02-06T16:00:30.539Z,3.88
2023-02-06T16:03:03.088Z,3.07
2023-02-06T16:05:31.106Z,4.03
2023-02-06T16:07:58.846Z,5.47
2023-02-06T16:10:36.550Z,3.78
2023-02-06T16:13:10.901Z,3.05
2023-02-06T16:15:39.811Z,5.33
2023-02-06T16:18:25.050Z,4.50
2023-02-06T16:20:51.724Z,4.93
2023-02-06T16:23:19.873Z,4.03
2023-02-06T16:25:48.767Z,3.83
2023-02-06T16:28:23.557Z,3.60
2023-02-06T16:31:04.872Z,5.18
2023-02-06T16:33:40.758Z,2.92
2023-02-06T16:36:07.922Z,4.32
2023-02-06T16:38:34.816Z,6.85
2023-02-06T16:41:01.518Z,2.93
2023-02-06T16:43:30.678Z,4.78
2023-02-06T16:46:00.221Z,5.43
2023-02-06T16:48:26.845Z,5.18
2023-02-06T16:50:53.624Z,4.78
2023-02-06T16:53:24.044Z,4.70
2023-02-06T16:55:51.402Z,3.90
2023-02-06T16:58:21.791Z,3.70
2023-02-06T17:00:49.168Z,6.43
2023-02-06T17:03:17.537Z,4.15
2023-02-06T17:05:46.392Z,3.90
2023-02-06T17:08:21.771Z,2.83
2023-02-06T17:10:49.007Z,2.67
2023-02-06T17:13:18.522Z,4.03
2023-02-06T17:15:49.160Z,4.00
2023-02-06T17:18:18.667Z,3.10
2023-02-06T17:20:48.821Z,2.70
2023-02-06T17:23:15.960Z,3.38
2023-02-06T17:25:44.544Z,4.97
2023-02-06T17:28:17.469Z,5.05
2023-02-06T17:30:45.795Z,3.50
2023-02-06T17:33:12.770Z,13.35
2023-02-06T17:35:39.509Z,5.70
2023-02-06T17:38:08.408Z,3.85
2023-02-06T17:40:37.433Z,5.47
2023-02-06T17:43:04.748Z,4.13
2023-02-06T17:45:32.216Z,4.65
2023-02-06T17:47:58.846Z,6.88
2023-02-06T17:50:27.566Z,4.60
2023-02-06T17:52:56.117Z,3.78
2023-02-06T17:55:24.056Z,4.50
2023-02-06T17:57:51.571Z,4.60
2023-02-06T18:00:20.234Z,5.32
2023-02-06T18:02:46.814Z,3.15
2023-02-06T18:05:13.631Z,5.32
2023-02-06T18:07:40.654Z,4.90
2023-02-06T18:10:08.901Z,4.30
2023-02-06T18:12:35.856Z,6.30
2023-02-06T18:15:03.416Z,7.35
2023-02-06T18:17:30.969Z,5.50
2023-02-06T18:19:57.735Z,6.30
2023-02-06T18:22:24.320Z,6.47
2023-02-06T18:24:51.256Z,7.07
2023-02-06T18:27:19.621Z,5.15
2023-02-06T18:29:50.027Z,6.32
2023-02-06T18:32:18.246Z,5.70
2023-02-06T18:34:45.079Z,4.57
2023-02-06T18:37:11.757Z,7.47
2023-02-06T18:39:39.312Z,6.82
2023-02-06T18:42:24.285Z,6.72
2023-02-06T18:44:50.896Z,7.27
2023-02-06T18:47:18.867Z,5.97
2023-02-06T18:49:45.473Z,6.10
2023-02-06T18:52:12.619Z,7.43
2023-02-06T18:54:39.617Z,5.95
2023-02-06T18:57:06.351Z,6.13
2023-02-06T18:59:33.089Z,5.95
2023-02-06T19:01:59.794Z,11.50
2023-02-06T19:04:26.493Z,15.82
2023-02-06T19:06:53.075Z,11.90
2023-02-06T19:09:20.193Z,8.33
2023-02-06T19:11:48.160Z,11.60
2023-02-06T19:14:16.928Z,11.73
2023-02-06T19:16:47.323Z,7.95
2023-02-06T19:19:14.125Z,6.72
2023-02-06T19:21:40.964Z,11.00
2023-02-06T19:24:08.124Z,27.23
2023-02-06T19:26:34.782Z,24.77
2023-02-06T19:29:01.497Z,21.38
2023-02-06T19:31:28.334Z,14.63
2023-02-06T19:33:58.321Z,11.17
2023-02-06T19:36:27.007Z,9.10
2023-02-06T19:38:56.474Z,12.60
2023-02-06T19:41:25.365Z,9.25
2023-02-06T19:43:53.784Z,11.52
2023-02-06T19:46:22.969Z,10.40
2023-02-06T19:48:51.390Z,9.50
2023-02-06T19:51:21.393Z,11.10
2023-02-06T19:53:53.387Z,8.55
2023-02-06T19:56:26.404Z,9.93
2023-02-06T19:58:58.061Z,8.67
2023-02-06T20:01:25.234Z,9.85
2023-02-06T20:03:53.051Z,11.18
2023-02-06T20:06:19.833Z,13.20
2023-02-06T20:08:47.198Z,12.38
2023-02-06T20:11:17.604Z,14.27
2023-02-06T20:13:46.983Z,12.98
2023-02-06T20:16:19.249Z,13.90
2023-02-06T20:18:46.033Z,12.10
2023-02-06T20:21:27.955Z,14.40
2023-02-06T20:23:57.026Z,14.40
2023-02-06T20:26:26.778Z,15.25
2023-02-06T20:28:53.483Z,14.23
2023-02-06T20:31:21.323Z,14.32
2023-02-06T20:33:49.246Z,14.60
2023-02-06T20:36:18.957Z,13.47
2023-02-06T20:38:56.928Z,15.95
2023-02-06T20:41:27.673Z,16.50
2023-02-06T20:43:57.236Z,15.45
2023-02-06T20:46:25.135Z,17.40
2023-02-06T20:48:57.393Z,19.70
2023-02-06T20:51:24.804Z,18.98
2023-02-06T20:53:51.685Z,16.95
2023-02-06T20:56:19.820Z,17.83
2023-02-06T20:58:46.781Z,19.67
2023-02-06T21:01:27.054Z,19.67
2023-02-06T21:04:03.455Z,18.45
2023-02-06T21:06:30.718Z,19.30
2023-02-06T21:09:00.203Z,19.48
2023-02-06T21:11:37.345Z,19.45
2023-02-06T21:14:05.325Z,16.83
2023-02-06T21:16:33.218Z,18.40
2023-02-06T21:19:01.057Z,18.33
2023-02-06T21:21:27.730Z,16.98
2023-02-06T21:23:55.967Z,15.93
2023-02-06T21:26:23.928Z,13.87
2023-02-06T21:28:50.767Z,15.30
2023-02-06T21:31:20.810Z,15.07
2023-02-06T21:33:48.913Z,15.60
2023-02-06T21:36:16.306Z,18.95
2023-02-06T21:38:43.641Z,15.63
2023-02-06T21:41:13.535Z,14.68
2023-02-06T21:43:40.512Z,16.50
2023-02-06T21:46:07.299Z,15.35
2023-02-06T21:48:35.259Z,16.80
2023-02-06T21:51:13.410Z,16.30
2023-02-06T21:53:40.783Z,17.52
2023-02-06T21:56:09.344Z,15.98
2023-02-06T21:58:36.657Z,14.10
2023-02-06T22:01:08.759Z,14.77
2023-02-06T22:03:35.604Z,16.77
2023-02-06T22:06:09.167Z,16.73
2023-02-06T22:08:36.433Z,17.48
2023-02-06T22:11:12.860Z,16.83
2023-02-06T22:13:40.218Z,17.17
2023-02-06T22:16:08.873Z,16.20
2023-02-06T22:18:35.755Z,19.00
2023-02-06T22:21:13.684Z,17.02
2023-02-06T22:23:40.953Z,17.90
2023-02-06T22:26:09.907Z,18.00
2023-02-06T22:28:37.040Z,16.47
2023-02-06T22:31:13.328Z,15.18
2023-02-06T22:33:40.383Z,18.58
2023-02-06T22:36:10.035Z,15.50
2023-02-06T22:38:37.270Z,16.10
2023-02-06T22:41:06.831Z,14.33
2023-02-06T22:43:35.704Z,14.60
2023-02-06T22:46:03.222Z,15.93
2023-02-06T22:48:29.922Z,15.25
2023-02-06T22:50:57.049Z,17.27
2023-02-06T22:53:29.705Z,16.13
2023-02-06T22:56:20.964Z,16.08
2023-02-06T22:58:49.130Z,16.58
2023-02-06T23:01:17.300Z,15.75
2023-02-06T23:03:43.993Z,15.05
2023-02-06T23:06:12.866Z,12.93
2023-02-06T23:08:40.895Z,12.32
2023-02-06T23:11:09.248Z,14.50
2023-02-06T23:13:36.179Z,14.13
2023-02-06T23:16:03.704Z,15.35
2023-02-06T23:18:30.705Z,13.70
2023-02-06T23:20:59.466Z,13.13
2023-02-06T23:23:29.439Z,10.52
2023-02-06T23:25:57.347Z,10.55
2023-02-06T23:28:25.586Z,13.23
2023-02-06T23:30:53.046Z,10.77
2023-02-06T23:33:19.824Z,11.45
2023-02-06T23:35:46.763Z,10.48
2023-02-06T23:38:13.592Z,10.75
2023-02-06T23:40:40.332Z,12.40
2023-02-06T23:43:07.537Z,11.07
2023-02-06T23:45:34.737Z,10.77
2023-02-06T23:48:01.986Z,9.75
2023-02-06T23:50:28.961Z,11.35
2023-02-06T23:52:55.513Z,9.90
2023-02-06T23:55:22.153Z,10.03
2023-02-06T23:57:48.849Z,9.93
